createdAt,value
2023-02-27T00:04:03.947Z,10.00
2023-02-27T00:09:26.115Z,15.60
2023-02-27T00:14:51.434Z,12.40
2023-02-27T00:20:16.779Z,10.97
2023-02-27T00:25:38.806Z,12.60
2023-02-27T00:31:04.734Z,11.07
2023-02-27T00:36:26.957Z,8.90
2023-02-27T00:41:49.042Z,9.80
2023-02-27T00:47:11.049Z,9.63
2023-02-27T00:52:34.851Z,11.00
2023-02-27T00:57:56.840Z,10.33
2023-02-27T01:03:18.841Z,9.33
2023-02-27T01:08:41.727Z,9.73
2023-02-27T01:14:03.817Z,10.27
2023-02-27T01:19:26.097Z,10.10
2023-02-27T01:24:48.112Z,11.57
2023-02-27T01:30:11.730Z,11.90
2023-02-27T01:35:33.709Z,10.33
2023-02-27T01:40:57.288Z,9.77
2023-02-27T01:46:24.055Z,8.30
2023-02-27T01:51:50.666Z,9.43
2023-02-27T01:57:12.658Z,9.37
2023-02-27T02:02:37.756Z,10.50
2023-02-27T02:08:07.731Z,11.57
2023-02-27T02:13:29.895Z,7.30
2023-02-27T02:19:20.631Z,9.60
2023-02-27T02:25:12.485Z,11.03
2023-02-27T02:30:55.443Z,13.20
2023-02-27T02:36:32.752Z,9.13
2023-02-27T02:42:05.844Z,12.60
2023-02-27T02:47:40.970Z,12.63
2023-02-27T02:53:18.095Z,11.57
2023-02-27T02:59:04.441Z,15.17
2023-02-27T03:05:01.370Z,10.27
2023-02-27T03:10:45.516Z,16.37
2023-02-27T03:16:18.344Z,11.57
2023-02-27T03:22:05.324Z,16.77
2023-02-27T03:27:32.049Z,8.67
2023-02-27T03:33:16.561Z,12.43
2023-02-27T03:38:48.679Z,9.53
2023-02-27T03:44:36.373Z,11.87
2023-02-27T03:49:59.029Z,12.97
2023-02-27T03:55:26.850Z,16.53
2023-02-27T04:00:49.519Z,14.27
2023-02-27T04:06:30.308Z,12.77
2023-02-27T04:12:32.386Z,14.20
2023-02-27T04:18:16.308Z,13.37
2023-02-27T04:23:50.069Z,13.20
2023-02-27T04:29:19.741Z,16.20
2023-02-27T04:34:53.195Z,13.50
2023-02-27T04:40:21.142Z,20.17
2023-02-27T04:45:45.609Z,14.93
2023-02-27T04:51:14.066Z,14.20
2023-02-27T04:56:44.133Z,14.33
2023-02-27T05:02:13.216Z,14.20
2023-02-27T05:08:02.386Z,19.50
2023-02-27T05:13:29.744Z,14.40
2023-02-27T05:18:51.751Z,14.33
2023-02-27T05:24:34.769Z,11.47
2023-02-27T05:30:00.820Z,13.33
2023-02-27T05:35:30.825Z,16.73
2023-02-27T05:41:01.235Z,13.50
2023-02-27T05:46:29.992Z,14.83
2023-02-27T05:51:54.933Z,14.60
2023-02-27T05:57:22.620Z,12.67
2023-02-27T06:02:45.234Z,13.50
2023-02-27T06:08:08.839Z,11.73
2023-02-27T06:13:31.118Z,10.13
2023-02-27T06:18:53.258Z,10.07
2023-02-27T06:24:17.665Z,12.83
2023-02-27T06:29:41.876Z,10.83
2023-02-27T06:35:06.545Z,11.13
2023-02-27T06:40:28.854Z,9.33
2023-02-27T06:45:56.103Z,11.00
2023-02-27T06:51:21.023Z,11.73
2023-02-27T06:56:45.268Z,10.93
2023-02-27T07:02:12.464Z,7.13
2023-02-27T07:07:38.238Z,9.70
2023-02-27T07:13:01.230Z,6.03
2023-02-27T07:18:25.686Z,3.67
2023-02-27T07:23:47.949Z,7.93
2023-02-27T07:29:10.040Z,6.80
2023-02-27T07:34:32.048Z,10.53
2023-02-27T07:39:56.374Z,7.47
2023-02-27T07:45:18.605Z,5.63
2023-02-27T07:50:40.648Z,4.77
2023-02-27T07:56:05.477Z,8.43
2023-02-27T08:01:27.446Z,5.27
2023-02-27T08:06:51.871Z,7.27
2023-02-27T08:12:16.197Z,4.60
2023-02-27T08:17:38.239Z,5.10
2023-02-27T08:23:00.540Z,5.87
2023-02-27T08:28:25.273Z,8.87
2023-02-27T08:34:00.810Z,4.60
2023-02-27T08:39:30.376Z,3.17
2023-02-27T08:44:54.915Z,5.77
2023-02-27T08:50:18.350Z,3.87
2023-02-27T08:55:40.589Z,4.53
2023-02-27T09:01:04.832Z,6.00
2023-02-27T09:06:26.900Z,7.33
2023-02-27T09:11:49.793Z,3.97
2023-02-27T09:17:11.991Z,6.33
2023-02-27T09:22:34.135Z,4.90
2023-02-27T09:27:59.036Z,5.43
2023-02-27T09:33:21.022Z,7.43
2023-02-27T09:38:43.397Z,4.77
2023-02-27T09:44:14.799Z,2.80
2023-02-27T09:49:48.304Z,2.43
2023-02-27T09:55:17.888Z,3.43
2023-02-27T10:00:45.921Z,4.20
2023-02-27T10:06:34.021Z,4.13
2023-02-27T10:12:29.413Z,5.40
2023-02-27T10:17:54.399Z,4.73
2023-02-27T10:23:23.369Z,2.50
2023-02-27T10:28:47.595Z,3.90
2023-02-27T10:34:14.868Z,3.03
2023-02-27T10:39:48.255Z,4.30
2023-02-27T10:45:17.201Z,5.17
2023-02-27T10:50:45.040Z,4.80
2023-02-27T10:56:10.673Z,3.07
2023-02-27T11:01:49.546Z,6.83
2023-02-27T11:07:14.324Z,2.57
2023-02-27T11:12:41.341Z,7.60
2023-02-27T11:18:22.136Z,2.03
2023-02-27T11:23:49.986Z,6.33
2023-02-27T11:29:19.013Z,4.00
2023-02-27T11:34:48.614Z,5.27
2023-02-27T11:40:12.779Z,6.50
2023-02-27T11:46:04.904Z,3.57
2023-02-27T11:51:46.840Z,6.83
2023-02-27T11:57:18.457Z,4.10
2023-02-27T12:03:01.944Z,2.90
2023-02-27T12:08:46.595Z,2.30
2023-02-27T12:14:10.534Z,4.93
2023-02-27T12:19:40.439Z,6.53
2023-02-27T12:25:08.326Z,6.07
2023-02-27T12:30:39.592Z,6.00
2023-02-27T12:36:03.129Z,4.53
2023-02-27T12:41:31.064Z,4.67
2023-02-27T12:47:25.115Z,5.30
2023-02-27T12:53:13.764Z,3.93
2023-02-27T12:59:06.095Z,4.60
2023-02-27T13:04:47.597Z,9.10
2023-02-27T13:10:22.270Z,10.07
2023-02-27T13:15:52.247Z,5.17
2023-02-27T13:21:24.265Z,4.10
2023-02-27T13:26:58.543Z,5.77
2023-02-27T13:32:41.612Z,9.37
2023-02-27T13:38:45.563Z,7.17
2023-02-27T13:44:19.807Z,4.10
2023-02-27T13:49:45.011Z,7.20
2023-02-27T13:55:27.734Z,7.13
2023-02-27T14:00:56.895Z,8.93
2023-02-27T14:06:21.655Z,9.47
2023-02-27T14:11:55.451Z,5.10
2023-02-27T14:17:41.079Z,10.03
2023-02-27T14:23:15.061Z,6.00
2023-02-27T14:28:56.455Z,5.50
2023-02-27T14:34:22.214Z,7.23
2023-02-27T14:39:44.765Z,6.13
2023-02-27T14:45:19.912Z,5.80
2023-02-27T14:50:42.504Z,3.63
2023-02-27T14:56:06.840Z,4.97
2023-02-27T15:01:35.367Z,5.30
2023-02-27T15:07:03.085Z,7.00
2023-02-27T15:12:28.115Z,9.70
2023-02-27T15:17:57.502Z,4.77
2023-02-27T15:23:26.002Z,6.40
2023-02-27T15:28:50.745Z,3.53
2023-02-27T15:34:15.536Z,5.30
2023-02-27T15:39:42.758Z,7.70
2023-02-27T15:45:08.080Z,10.43
2023-02-27T15:50:34.035Z,7.27
2023-02-27T15:56:02.009Z,9.77
2023-02-27T16:01:29.653Z,11.43
2023-02-27T16:07:02.089Z,9.03
2023-02-27T16:12:31.555Z,9.50
2023-02-27T16:18:08.552Z,11.90
2023-02-27T16:23:32.008Z,10.53
2023-02-27T16:28:54.027Z,8.80
2023-02-27T16:34:26.100Z,5.53
2023-02-27T16:39:52.448Z,9.70
2023-02-27T16:45:17.007Z,9.03
2023-02-27T16:50:41.474Z,6.27
2023-02-27T16:56:03.669Z,7.97
2023-02-27T17:01:28.870Z,7.60
2023-02-27T17:06:51.523Z,14.70
2023-02-27T17:12:13.862Z,8.47
2023-02-27T17:17:38.150Z,8.27
2023-02-27T17:23:00.301Z,11.90
2023-02-27T17:28:22.774Z,10.33
2023-02-27T17:33:44.877Z,5.07
2023-02-27T17:39:07.483Z,6.27
2023-02-27T17:44:29.815Z,10.90
2023-02-27T17:49:51.849Z,8.37
2023-02-27T17:55:15.856Z,14.47
2023-02-27T18:00:37.960Z,7.97
2023-02-27T18:06:05.163Z,9.13
2023-02-27T18:11:27.182Z,10.53
2023-02-27T18:16:52.264Z,10.50
2023-02-27T18:22:15.455Z,8.27
2023-02-27T18:27:40.356Z,11.90
2023-02-27T18:33:04.626Z,9.70
2023-02-27T18:38:29.314Z,7.83
2023-02-27T18:43:53.809Z,10.27
2023-02-27T18:49:15.906Z,10.13
2023-02-27T18:54:38.431Z,9.60
2023-02-27T19:00:03.418Z,11.97
2023-02-27T19:05:25.593Z,11.80
2023-02-27T19:10:47.670Z,7.57
2023-02-27T19:16:30.311Z,8.70
2023-02-27T19:21:53.598Z,8.63
2023-02-27T19:27:18.156Z,12.73
2023-02-27T19:32:40.363Z,10.50
2023-02-27T19:38:07.587Z,10.67
2023-02-27T19:43:31.894Z,9.50
2023-02-27T19:48:58.350Z,3.93
2023-02-27T19:54:20.446Z,7.97
2023-02-27T19:59:47.584Z,9.00
2023-02-27T20:05:12.130Z,7.73
2023-02-27T20:10:44.200Z,10.60
2023-02-27T20:16:08.506Z,8.33
2023-02-27T20:21:41.223Z,5.73
2023-02-27T20:27:07.245Z,11.20
2023-02-27T20:32:32.436Z,11.67
2023-02-27T20:37:54.527Z,5.87
2023-02-27T20:43:19.105Z,8.07
2023-02-27T20:48:41.759Z,12.03
2023-02-27T20:54:09.949Z,17.67
2023-02-27T20:59:32.342Z,18.77
2023-02-27T21:04:54.746Z,20.60
2023-02-27T21:10:20.015Z,12.80
2023-02-27T21:15:42.205Z,11.83
2023-02-27T21:21:13.253Z,17.23
2023-02-27T21:26:40.614Z,24.93
2023-02-27T21:32:08.628Z,19.77
2023-02-27T21:37:33.109Z,22.93
2023-02-27T21:42:55.494Z,19.17
2023-02-27T21:48:18.283Z,21.83
2023-02-27T21:53:40.503Z,22.07
2023-02-27T21:59:05.486Z,22.77
2023-02-27T22:04:27.476Z,20.53
2023-02-27T22:09:52.565Z,16.80
2023-02-27T22:15:14.797Z,16.43
2023-02-27T22:20:39.933Z,14.80
2023-02-27T22:26:07.948Z,12.37
2023-02-27T22:31:36.876Z,14.47
2023-02-27T22:37:01.205Z,8.67
2023-02-27T22:42:23.707Z,11.10
2023-02-27T22:47:45.795Z,10.50
2023-02-27T22:53:07.832Z,13.60
2023-02-27T22:58:37.132Z,12.30
2023-02-27T23:04:01.355Z,6.80
2023-02-27T23:09:28.541Z,8.43
2023-02-27T23:14:52.641Z,10.33
2023-02-27T23:20:14.807Z,10.97
2023-02-27T23:25:37.895Z,10.07
2023-02-27T23:31:02.117Z,6.47
2023-02-27T23:36:24.122Z,7.33
2023-02-27T23:41:46.139Z,10.60
2023-02-27T23:47:10.436Z,8.73
2023-02-27T23:52:32.521Z,8.57
2023-02-27T23:57:56.135Z,8.33
